createdAt,value
2022-10-04T00:02:01.135Z,18.60
2022-10-04T00:04:42.022Z,16.63
2022-10-04T00:07:12.257Z,19.40
2022-10-04T00:09:52.265Z,15.43
2022-10-04T00:12:33.462Z,17.23
2022-10-04T00:15:07.796Z,18.30
2022-10-04T00:17:35.740Z,15.90
2022-10-04T00:20:25.331Z,13.57
2022-10-04T00:23:23.540Z,18.48
2022-10-04T00:25:58.649Z,14.25
2022-10-04T00:28:26.111Z,17.98
2022-10-04T00:31:10.233Z,13.65
2022-10-04T00:33:42.716Z,14.70
2022-10-04T00:36:25.347Z,19.40
2022-10-04T00:39:05.060Z,14.35
2022-10-04T00:41:44.456Z,13.30
2022-10-04T00:44:53.891Z,14.45
2022-10-04T00:47:49.532Z,16.08
2022-10-04T00:50:33.818Z,14.75
2022-10-04T00:53:03.781Z,17.33
2022-10-04T00:55:42.446Z,14.93
2022-10-04T00:58:42.101Z,16.52
2022-10-04T01:01:09.762Z,17.52
2022-10-04T01:03:41.022Z,16.52
2022-10-04T01:06:11.345Z,16.17
2022-10-04T01:08:45.502Z,15.02
2022-10-04T01:11:24.422Z,13.98
2022-10-04T01:14:02.587Z,16.08
2022-10-04T01:16:33.663Z,14.75
2022-10-04T01:19:26.667Z,15.15
2022-10-04T01:22:05.294Z,18.55
2022-10-04T01:24:43.762Z,15.82
2022-10-04T01:27:46.691Z,16.17
2022-10-04T01:30:17.073Z,20.65
2022-10-04T01:32:45.511Z,15.38
2022-10-04T01:35:15.386Z,14.85
2022-10-04T01:37:42.796Z,16.27
2022-10-04T01:40:11.543Z,19.40
2022-10-04T01:42:48.827Z,21.77
2022-10-04T01:45:54.668Z,22.90
2022-10-04T01:48:26.021Z,23.55
2022-10-04T01:51:05.501Z,24.58
2022-10-04T01:53:42.340Z,24.40
2022-10-04T01:56:14.589Z,21.30
2022-10-04T02:01:50.590Z,23.08
2022-10-04T02:04:22.630Z,32.63
2022-10-04T02:06:56.544Z,18.90
2022-10-04T02:09:28.562Z,15.45
2022-10-04T02:11:58.255Z,25.55
2022-10-04T02:14:34.525Z,28.38
2022-10-04T02:17:10.837Z,27.40
2022-10-04T02:19:42.897Z,27.20
2022-10-04T02:22:11.599Z,27.80
2022-10-04T02:24:48.311Z,35.22
2022-10-04T02:27:16.279Z,31.58
2022-10-04T02:29:43.884Z,30.67
2022-10-04T02:32:32.201Z,25.67
2022-10-04T02:34:59.702Z,29.00
2022-10-04T02:37:28.835Z,27.35
2022-10-04T02:40:16.127Z,31.65
2022-10-04T02:43:02.035Z,27.85
2022-10-04T02:45:52.240Z,30.23
2022-10-04T02:48:19.514Z,25.90
2022-10-04T02:50:51.877Z,23.92
2022-10-04T02:55:50.207Z,22.42
2022-10-04T02:58:22.091Z,27.73
2022-10-04T03:00:52.774Z,25.90
2022-10-04T03:03:30.246Z,28.17
2022-10-04T03:06:14.304Z,29.45
2022-10-04T03:08:50.222Z,23.77
2022-10-04T03:11:22.701Z,24.58
2022-10-04T03:13:56.398Z,23.73
2022-10-04T03:16:25.216Z,25.50
2022-10-04T03:18:56.704Z,23.10
2022-10-04T03:21:25.594Z,23.87
2022-10-04T03:23:54.155Z,25.75
2022-10-04T03:26:41.056Z,27.48
2022-10-04T03:29:11.226Z,22.38
2022-10-04T03:31:43.995Z,28.02
2022-10-04T03:34:21.533Z,24.15
2022-10-04T03:36:50.788Z,22.20
2022-10-04T03:39:41.887Z,25.05
2022-10-04T03:42:16.340Z,29.52
2022-10-04T03:44:47.154Z,22.05
2022-10-04T03:47:33.958Z,32.13
2022-10-04T03:50:13.952Z,28.23
2022-10-04T03:52:57.759Z,22.55
2022-10-04T03:55:33.946Z,21.88
2022-10-04T03:58:02.111Z,24.98
2022-10-04T04:00:29.851Z,26.15
2022-10-04T04:03:01.207Z,27.10
2022-10-04T04:05:29.388Z,22.43
2022-10-04T04:08:23.635Z,24.45
2022-10-04T04:10:55.470Z,25.08
2022-10-04T04:13:25.543Z,25.90
2022-10-04T04:15:55.683Z,31.25
2022-10-04T04:18:31.215Z,24.65
2022-10-04T04:21:01.648Z,26.85
2022-10-04T04:23:41.747Z,24.42
2022-10-04T04:26:23.611Z,26.50
2022-10-04T04:28:54.879Z,23.77
2022-10-04T04:31:25.334Z,27.88
2022-10-04T04:34:06.463Z,22.13
2022-10-04T04:36:40.629Z,26.63
2022-10-04T04:39:41.253Z,29.75
2022-10-04T04:42:21.228Z,27.48
2022-10-04T04:45:01.872Z,24.27
2022-10-04T04:47:42.010Z,35.00
2022-10-04T04:50:15.888Z,27.88
2022-10-04T04:52:55.686Z,27.70
2022-10-04T04:55:26.221Z,27.48
2022-10-04T04:57:56.842Z,30.25
2022-10-04T05:00:30.179Z,30.35
2022-10-04T05:03:00.300Z,27.73
2022-10-04T05:05:33.243Z,31.90
2022-10-04T05:08:12.798Z,27.35
2022-10-04T05:10:45.575Z,27.83
2022-10-04T05:13:14.207Z,27.88
2022-10-04T05:15:42.769Z,30.17
2022-10-04T05:18:33.514Z,23.48
2022-10-04T05:21:25.297Z,27.73
2022-10-04T05:23:53.266Z,23.07
2022-10-04T05:26:27.701Z,29.80
2022-10-04T05:29:06.600Z,28.13
2022-10-04T05:31:48.962Z,27.25
2022-10-04T05:34:24.144Z,31.33
2022-10-04T05:37:19.325Z,27.48
2022-10-04T05:40:05.613Z,31.02
2022-10-04T05:42:47.884Z,31.10
2022-10-04T05:45:28.022Z,29.40
2022-10-04T05:47:57.522Z,36.22
2022-10-04T05:50:41.754Z,21.05
2022-10-04T05:53:14.205Z,26.58
2022-10-04T05:56:18.823Z,21.58
2022-10-04T05:59:02.094Z,22.48
2022-10-04T06:02:06.759Z,25.27
2022-10-04T06:04:58.248Z,25.55
2022-10-04T06:07:40.718Z,26.50
2022-10-04T06:10:27.052Z,29.67
2022-10-04T06:13:21.849Z,24.38
2022-10-04T06:16:29.124Z,29.10
2022-10-04T06:19:26.896Z,29.70
2022-10-04T06:22:18.241Z,31.80
2022-10-04T06:24:50.696Z,26.73
2022-10-04T06:27:41.781Z,30.30
2022-10-04T06:30:17.505Z,25.02
2022-10-04T06:33:16.035Z,26.23
2022-10-04T06:35:52.514Z,32.05
2022-10-04T06:38:41.600Z,25.98
2022-10-04T06:41:17.808Z,33.40
2022-10-04T06:44:14.678Z,26.80
2022-10-04T06:47:14.741Z,23.73
2022-10-04T06:50:01.826Z,29.23
2022-10-04T06:53:16.686Z,26.50
2022-10-04T06:55:47.194Z,26.88
2022-10-04T06:58:40.915Z,30.17
2022-10-04T07:01:14.234Z,26.75
2022-10-04T07:03:53.035Z,29.30
2022-10-04T07:06:29.263Z,32.60
2022-10-04T07:09:02.469Z,35.45
2022-10-04T07:11:42.932Z,36.92
2022-10-04T07:14:24.391Z,32.63
2022-10-04T07:16:57.921Z,34.80
2022-10-04T07:19:49.846Z,33.10
2022-10-04T07:22:28.250Z,33.67
2022-10-04T07:25:14.845Z,34.83
2022-10-04T07:28:20.017Z,31.15
2022-10-04T07:31:11.873Z,33.33
2022-10-04T07:33:48.194Z,29.07
2022-10-04T07:36:21.972Z,40.15
2022-10-04T07:38:54.912Z,29.20
2022-10-04T07:41:51.903Z,29.17
2022-10-04T07:44:41.440Z,29.02
2022-10-04T07:47:08.766Z,31.13
2022-10-04T07:49:40.846Z,29.30
2022-10-04T07:52:20.615Z,34.95
2022-10-04T07:55:00.397Z,33.30
2022-10-04T07:57:55.827Z,33.17
2022-10-04T08:00:31.946Z,29.02
2022-10-04T08:03:02.179Z,36.75
2022-10-04T08:05:33.493Z,31.90
2022-10-04T08:08:19.510Z,28.30
2022-10-04T08:11:08.089Z,22.48
2022-10-04T08:14:12.631Z,26.33
2022-10-04T08:16:58.163Z,18.42
2022-10-04T08:20:01.435Z,22.25
2022-10-04T08:22:40.888Z,19.20
2022-10-04T08:25:45.923Z,19.25
2022-10-04T08:28:44.796Z,20.73
2022-10-04T08:32:05.062Z,18.17
2022-10-04T08:35:16.346Z,21.00
2022-10-04T08:37:55.633Z,16.95
2022-10-04T08:40:50.151Z,18.98
2022-10-04T08:43:43.162Z,18.40
2022-10-04T08:46:48.285Z,18.20
2022-10-04T08:49:46.922Z,15.90
2022-10-04T08:52:39.284Z,18.20
2022-10-04T08:55:12.421Z,13.02
2022-10-04T08:58:07.441Z,13.88
2022-10-04T09:00:53.588Z,12.77
2022-10-04T09:03:42.542Z,15.48
2022-10-04T09:06:25.960Z,18.98
2022-10-04T09:09:14.880Z,12.50
2022-10-04T09:12:05.041Z,14.05
2022-10-04T09:14:56.188Z,14.82
2022-10-04T09:17:37.418Z,13.32
2022-10-04T09:20:43.086Z,15.43
2022-10-04T09:23:22.701Z,15.30
2022-10-04T09:26:08.092Z,14.05
2022-10-04T09:29:04.614Z,13.05
2022-10-04T09:31:56.715Z,17.65
2022-10-04T09:34:33.817Z,16.73
2022-10-04T09:37:32.288Z,17.48
2022-10-04T09:40:09.660Z,19.38
2022-10-04T09:42:42.582Z,16.08
2022-10-04T09:45:32.410Z,17.63
2022-10-04T09:48:30.093Z,18.73
2022-10-04T09:51:25.375Z,17.67
2022-10-04T09:54:20.020Z,18.08
2022-10-04T09:57:02.551Z,15.65
2022-10-04T09:59:35.291Z,14.45
2022-10-04T10:02:32.791Z,12.98
2022-10-04T10:05:16.951Z,13.73
2022-10-04T10:08:18.084Z,12.45
2022-10-04T10:11:32.894Z,13.32
2022-10-04T10:14:37.091Z,13.60
2022-10-04T10:17:27.764Z,10.90
2022-10-04T10:20:32.214Z,12.90
2022-10-04T10:23:08.432Z,12.20
2022-10-04T10:25:54.099Z,14.38
2022-10-04T10:28:57.950Z,13.95
2022-10-04T10:31:56.747Z,12.52
2022-10-04T10:34:45.358Z,12.25
2022-10-04T10:37:31.001Z,19.77
2022-10-04T10:40:25.382Z,11.57
2022-10-04T10:43:20.805Z,12.32
2022-10-04T10:46:15.546Z,11.95
2022-10-04T10:49:21.392Z,11.35
2022-10-04T10:52:13.569Z,8.88
2022-10-04T10:54:47.324Z,6.95
2022-10-04T10:57:37.731Z,12.20
2022-10-04T11:00:21.382Z,10.82
2022-10-04T11:03:13.551Z,14.18
2022-10-04T11:06:14.042Z,11.73
2022-10-04T11:08:55.853Z,6.05
2022-10-04T11:11:35.468Z,6.72
2022-10-04T11:14:40.869Z,12.73
2022-10-04T11:17:27.513Z,9.45
2022-10-04T11:20:15.589Z,6.55
2022-10-04T11:23:02.090Z,8.10
2022-10-04T11:25:50.734Z,8.82
2022-10-04T11:28:46.545Z,10.85
2022-10-04T11:31:48.972Z,8.50
2022-10-04T11:34:46.326Z,8.57
2022-10-04T11:37:53.645Z,6.80
2022-10-04T11:40:58.761Z,9.70
2022-10-04T11:43:53.614Z,7.45
2022-10-04T11:46:37.177Z,12.85
2022-10-04T11:49:19.922Z,11.43
2022-10-04T11:52:09.063Z,8.65
2022-10-04T11:55:09.475Z,10.15
2022-10-04T11:57:54.992Z,7.18
2022-10-04T12:00:24.910Z,8.43
2022-10-04T12:03:13.805Z,9.45
2022-10-04T12:06:01.754Z,8.93
2022-10-04T12:08:29.054Z,6.88
2022-10-04T12:11:49.538Z,10.95
2022-10-04T12:14:31.645Z,6.95
2022-10-04T12:17:11.156Z,8.10
2022-10-04T12:19:44.063Z,8.68
2022-10-04T12:22:26.192Z,8.63
2022-10-04T12:25:14.480Z,7.07
2022-10-04T12:28:11.793Z,9.60
2022-10-04T12:31:12.255Z,6.63
2022-10-04T12:33:54.025Z,6.60
2022-10-04T12:36:59.595Z,7.43
2022-10-04T12:39:28.344Z,7.32
2022-10-04T12:42:24.295Z,9.18
2022-10-04T12:45:17.844Z,9.73
2022-10-04T12:48:07.180Z,8.18
2022-10-04T12:51:10.576Z,9.43
2022-10-04T12:53:54.509Z,14.10
2022-10-04T12:56:46.714Z,7.85
2022-10-04T12:59:28.930Z,9.55
2022-10-04T13:02:23.765Z,9.30
2022-10-04T13:05:02.313Z,12.05
2022-10-04T13:07:47.284Z,10.35
2022-10-04T13:10:33.319Z,13.40
2022-10-04T13:13:29.419Z,11.55
2022-10-04T13:19:19.461Z,12.40
2022-10-04T13:21:49.755Z,12.23
2022-10-04T13:24:22.640Z,22.30
2022-10-04T13:27:07.594Z,13.10
2022-10-04T13:29:47.585Z,12.65
2022-10-04T13:32:28.141Z,11.05
2022-10-04T13:35:01.732Z,12.15
2022-10-04T13:37:54.539Z,10.35
2022-10-04T13:40:36.860Z,11.82
2022-10-04T13:46:15.002Z,13.10
2022-10-04T13:48:58.707Z,11.15
2022-10-04T13:51:39.361Z,14.00
2022-10-04T13:54:53.297Z,11.35
2022-10-04T13:57:24.324Z,11.88
2022-10-04T14:00:15.303Z,13.77
2022-10-04T14:02:49.940Z,14.30
2022-10-04T14:05:39.124Z,13.07
2022-10-04T14:08:42.649Z,16.50
2022-10-04T14:11:43.352Z,13.65
2022-10-04T14:14:43.000Z,13.32
2022-10-04T14:17:22.948Z,17.13
2022-10-04T14:20:27.769Z,12.15
2022-10-04T14:23:07.348Z,11.85
2022-10-04T14:25:43.735Z,15.25
2022-10-04T14:28:49.098Z,17.58
2022-10-04T14:31:37.876Z,12.18
2022-10-04T14:34:47.460Z,17.38
2022-10-04T14:37:33.427Z,13.48
2022-10-04T14:40:09.461Z,14.38
2022-10-04T14:43:15.413Z,14.13
2022-10-04T14:46:01.400Z,11.55
2022-10-04T14:49:07.943Z,15.05
2022-10-04T14:52:04.559Z,13.27
2022-10-04T14:54:53.526Z,15.98
2022-10-04T14:57:58.329Z,16.80
2022-10-04T15:01:02.647Z,15.55
2022-10-04T15:03:36.375Z,10.98
2022-10-04T15:06:19.697Z,13.25
2022-10-04T15:09:09.319Z,16.88
2022-10-04T15:12:29.549Z,16.13
2022-10-04T15:15:14.433Z,21.38
2022-10-04T15:17:48.040Z,15.43
2022-10-04T15:20:27.191Z,17.95
2022-10-04T15:23:07.182Z,15.90
2022-10-04T15:25:48.119Z,17.20
2022-10-04T15:28:33.924Z,20.98
2022-10-04T15:31:18.931Z,12.60
2022-10-04T15:33:59.564Z,14.15
2022-10-04T15:36:57.558Z,15.82
2022-10-04T15:39:35.166Z,13.38
2022-10-04T15:42:08.028Z,15.07
2022-10-04T15:45:02.872Z,14.68
2022-10-04T15:47:55.433Z,18.25
2022-10-04T15:53:07.609Z,15.18
2022-10-04T15:56:12.711Z,13.90
2022-10-04T15:58:53.085Z,17.75
2022-10-04T16:01:48.096Z,17.70
2022-10-04T16:04:32.498Z,18.83
2022-10-04T16:07:19.543Z,14.13
2022-10-04T16:09:58.902Z,14.20
2022-10-04T16:13:01.442Z,20.58
2022-10-04T16:15:35.282Z,33.75
2022-10-04T16:18:12.314Z,17.73
2022-10-04T16:21:21.059Z,17.13
2022-10-04T16:24:09.678Z,20.30
2022-10-04T16:26:43.486Z,14.18
2022-10-04T16:30:14.561Z,15.15
2022-10-04T16:32:59.287Z,15.00
2022-10-04T16:35:46.143Z,16.25
2022-10-04T16:38:14.458Z,14.70
2022-10-04T16:41:13.259Z,18.60
2022-10-04T16:44:01.252Z,39.90
2022-10-04T16:46:45.021Z,29.95
2022-10-04T16:49:26.638Z,23.10
2022-10-04T16:52:24.686Z,20.13
2022-10-04T16:55:19.471Z,24.23
2022-10-04T16:58:27.073Z,21.05
2022-10-04T17:01:22.358Z,30.98
2022-10-04T17:04:04.971Z,24.52
2022-10-04T17:06:51.543Z,24.05
2022-10-04T17:09:24.314Z,20.23
2022-10-04T17:11:57.555Z,25.17
2022-10-04T17:14:35.307Z,30.45
2022-10-04T17:17:20.245Z,25.48
2022-10-04T17:19:54.519Z,25.83
2022-10-04T17:22:54.078Z,17.10
2022-10-04T17:26:03.308Z,15.95
2022-10-04T17:28:55.390Z,17.05
2022-10-04T17:31:31.679Z,17.50
2022-10-04T17:34:21.768Z,16.73
2022-10-04T17:37:11.195Z,17.67
2022-10-04T17:40:17.060Z,17.52
2022-10-04T17:43:00.105Z,16.05
2022-10-04T17:45:39.093Z,16.38
2022-10-04T17:48:59.740Z,15.35
2022-10-04T17:51:58.442Z,18.92
2022-10-04T17:54:57.198Z,16.52
2022-10-04T17:57:52.501Z,17.77
2022-10-04T18:00:25.586Z,19.05
2022-10-04T18:03:13.338Z,18.80
2022-10-04T18:05:47.070Z,17.13
2022-10-04T18:08:39.018Z,14.55
2022-10-04T18:11:14.216Z,14.50
2022-10-04T18:13:55.945Z,22.70
2022-10-04T18:16:44.237Z,18.90
2022-10-04T18:19:50.456Z,18.27
2022-10-04T18:22:26.435Z,18.40
2022-10-04T18:25:23.504Z,24.25
2022-10-04T18:27:50.838Z,19.95
2022-10-04T18:30:21.139Z,24.13
2022-10-04T18:32:54.582Z,21.42
2022-10-04T18:35:27.349Z,17.45
2022-10-04T18:38:20.961Z,20.45
2022-10-04T18:41:22.544Z,14.45
2022-10-04T18:43:59.361Z,17.98
2022-10-04T18:46:39.147Z,22.45
2022-10-04T18:49:31.060Z,20.27
2022-10-04T18:52:10.788Z,18.45
2022-10-04T18:54:59.420Z,20.15
2022-10-04T18:57:58.927Z,18.75
2022-10-04T19:00:51.827Z,19.25
2022-10-04T19:03:46.990Z,20.80
2022-10-04T19:06:27.693Z,20.40
2022-10-04T19:09:25.847Z,17.95
2022-10-04T19:12:06.257Z,18.92
2022-10-04T19:14:42.586Z,21.55
2022-10-04T19:17:34.141Z,24.42
2022-10-04T19:20:10.885Z,19.95
2022-10-04T19:22:59.121Z,22.50
2022-10-04T19:26:17.571Z,22.73
2022-10-04T19:28:38.143Z,28.80
2022-10-04T19:31:27.202Z,21.83
2022-10-04T19:34:24.550Z,24.75
2022-10-04T19:37:28.152Z,31.55
2022-10-04T19:40:17.289Z,36.63
2022-10-04T19:42:53.579Z,23.75
2022-10-04T19:45:39.655Z,27.23
2022-10-04T19:48:24.195Z,20.27
2022-10-04T19:51:08.411Z,25.90
2022-10-04T19:53:43.551Z,24.92
2022-10-04T19:56:23.857Z,28.92
2022-10-04T19:59:05.184Z,21.17
2022-10-04T20:01:34.497Z,22.60
2022-10-04T20:04:23.786Z,19.77
2022-10-04T20:06:58.204Z,26.13
2022-10-04T20:09:37.511Z,24.13
2022-10-04T20:12:05.758Z,28.35
2022-10-04T20:14:33.144Z,24.75
2022-10-04T20:17:00.845Z,24.77
2022-10-04T20:19:28.123Z,21.85
2022-10-04T20:22:18.641Z,21.70
2022-10-04T20:24:46.068Z,19.20
2022-10-04T20:27:26.483Z,22.02
2022-10-04T20:29:57.494Z,21.40
2022-10-04T20:32:32.044Z,22.42
2022-10-04T20:35:00.856Z,20.98
2022-10-04T20:38:13.842Z,17.77
2022-10-04T20:40:45.199Z,19.17
2022-10-04T20:43:15.462Z,19.70
2022-10-04T20:45:47.416Z,21.92
2022-10-04T20:48:24.402Z,20.85
2022-10-04T20:50:52.772Z,22.67
2022-10-04T20:53:23.900Z,21.83
2022-10-04T20:55:57.165Z,19.40
2022-10-04T20:58:35.163Z,23.83
2022-10-04T21:01:16.976Z,21.10
2022-10-04T21:03:44.569Z,28.95
2022-10-04T21:06:12.811Z,23.38
2022-10-04T21:08:41.099Z,24.05
2022-10-04T21:11:19.491Z,30.63
2022-10-04T21:13:57.804Z,22.20
2022-10-04T21:16:38.794Z,22.20
2022-10-04T21:19:44.602Z,24.48
2022-10-04T21:22:33.205Z,23.63
2022-10-04T21:25:03.900Z,22.15
2022-10-04T21:27:39.892Z,22.77
2022-10-04T21:30:14.272Z,21.95
2022-10-04T21:32:41.646Z,22.08
2022-10-04T21:35:10.119Z,23.27
2022-10-04T21:37:37.683Z,23.77
2022-10-04T21:40:06.165Z,21.67
2022-10-04T21:42:33.585Z,26.17
2022-10-04T21:45:00.995Z,28.05
2022-10-04T21:47:28.433Z,26.15
2022-10-04T21:49:56.008Z,25.88
2022-10-04T21:52:23.505Z,27.17
2022-10-04T21:54:51.251Z,23.98
2022-10-04T21:57:18.702Z,21.77
2022-10-04T21:59:47.279Z,24.55
2022-10-04T22:02:14.666Z,30.20
2022-10-04T22:04:42.151Z,24.10
2022-10-04T22:07:10.671Z,24.65
2022-10-04T22:09:38.114Z,25.98
2022-10-04T22:12:05.540Z,24.98
2022-10-04T22:14:32.970Z,25.80
2022-10-04T22:17:00.448Z,25.95
2022-10-04T22:19:27.946Z,25.58
2022-10-04T22:21:55.792Z,25.95
2022-10-04T22:24:23.235Z,25.63
2022-10-04T22:26:50.762Z,33.08
2022-10-04T22:29:18.997Z,27.63
2022-10-04T22:31:55.563Z,30.27
2022-10-04T22:34:24.351Z,25.08
2022-10-04T22:36:53.190Z,28.83
2022-10-04T22:39:21.408Z,24.33
2022-10-04T22:41:54.287Z,27.25
2022-10-04T22:44:23.679Z,20.27
2022-10-04T22:46:53.714Z,22.02
2022-10-04T22:49:27.004Z,24.70
2022-10-04T22:51:56.178Z,24.70
2022-10-04T22:54:26.826Z,24.77
2022-10-04T22:56:54.279Z,25.48
2022-10-04T22:59:27.012Z,23.60
2022-10-04T23:01:54.397Z,20.60
2022-10-04T23:04:24.426Z,20.95
2022-10-04T23:06:53.266Z,22.45
2022-10-04T23:09:21.016Z,20.42
2022-10-04T23:11:49.359Z,22.52
2022-10-04T23:14:17.240Z,23.65
2022-10-04T23:16:49.516Z,22.98
2022-10-04T23:19:20.425Z,19.48
2022-10-04T23:21:50.494Z,18.75
2022-10-04T23:24:21.552Z,22.75
2022-10-04T23:26:58.370Z,21.73
2022-10-04T23:29:30.504Z,20.92
2022-10-04T23:31:58.679Z,19.90
2022-10-04T23:34:35.749Z,25.52
2022-10-04T23:37:05.558Z,24.70
2022-10-04T23:39:36.070Z,22.00
2022-10-04T23:42:32.106Z,21.65
2022-10-04T23:45:01.518Z,25.40
2022-10-04T23:47:36.919Z,25.77
2022-10-04T23:50:23.180Z,24.98
2022-10-04T23:52:52.139Z,23.23
2022-10-04T23:55:24.164Z,24.42
2022-10-04T23:57:51.600Z,26.63
